sensor_id;sensor_type;location;lat;lon;timestamp;temperature;humidity
79030;DHT22;68511;51.146;7.012;2024-02-26T00:00:36;13.80;59.90
79030;DHT22;68511;51.146;7.012;2024-02-26T00:01:40;13.90;60.00
79030;DHT22;68511;51.146;7.012;2024-02-26T00:02:43;13.90;60.00
79030;DHT22;68511;51.146;7.012;2024-02-26T00:03:46;13.90;60.00
79030;DHT22;68511;51.146;7.012;2024-02-26T00:04:49;13.80;59.90
79030;DHT22;68511;51.146;7.012;2024-02-26T00:05:55;13.80;59.80
79030;DHT22;68511;51.146;7.012;2024-02-26T00:06:59;13.80;59.90
79030;DHT22;68511;51.146;7.012;2024-02-26T00:08:01;13.80;59.80
79030;DHT22;68511;51.146;7.012;2024-02-26T00:09:04;13.90;60.00
79030;DHT22;68511;51.146;7.012;2024-02-26T00:10:06;13.90;60.00
79030;DHT22;68511;51.146;7.012;2024-02-26T00:11:09;13.90;60.00
79030;DHT22;68511;51.146;7.012;2024-02-26T00:12:10;13.90;59.90
79030;DHT22;68511;51.146;7.012;2024-02-26T00:13:11;13.80;59.90
79030;DHT22;68511;51.146;7.012;2024-02-26T00:14:11;13.90;60.00
79030;DHT22;68511;51.146;7.012;2024-02-26T00:15:14;13.90;60.00
79030;DHT22;68511;51.146;7.012;2024-02-26T00:16:17;13.80;59.90
79030;DHT22;68511;51.146;7.012;2024-02-26T00:17:20;13.90;60.00
79030;DHT22;68511;51.146;7.012;2024-02-26T00:18:21;13.90;60.00
79030;DHT22;68511;51.146;7.012;2024-02-26T00:19:23;13.90;60.00
79030;DHT22;68511;51.146;7.012;2024-02-26T00:20:26;13.90;60.00
79030;DHT22;68511;51.146;7.012;2024-02-26T00:21:29;13.90;60.00
79030;DHT22;68511;51.146;7.012;2024-02-26T00:22:32;13.90;60.00
79030;DHT22;68511;51.146;7.012;2024-02-26T00:23:34;13.90;60.00
79030;DHT22;68511;51.146;7.012;2024-02-26T00:24:37;13.80;59.80
79030;DHT22;68511;51.146;7.012;2024-02-26T00:25:40;13.80;59.80
79030;DHT22;68511;51.146;7.012;2024-02-26T00:26:44;13.80;59.90
79030;DHT22;68511;51.146;7.012;2024-02-26T00:27:47;13.90;60.00
79030;DHT22;68511;51.146;7.012;2024-02-26T00:28:50;13.80;59.90
79030;DHT22;68511;51.146;7.012;2024-02-26T00:29:53;13.90;59.90
79030;DHT22;68511;51.146;7.012;2024-02-26T00:30:53;13.80;59.80
79030;DHT22;68511;51.146;7.012;2024-02-26T00:31:58;13.90;59.90
79030;DHT22;68511;51.146;7.012;2024-02-26T00:33:01;13.80;59.80
79030;DHT22;68511;51.146;7.012;2024-02-26T00:34:04;13.90;59.90
79030;DHT22;68511;51.146;7.012;2024-02-26T00:35:04;13.90;59.90
79030;DHT22;68511;51.146;7.012;2024-02-26T00:36:05;13.80;59.80
79030;DHT22;68511;51.146;7.012;2024-02-26T00:37:09;13.80;59.90
79030;DHT22;68511;51.146;7.012;2024-02-26T00:38:12;13.80;59.80
79030;DHT22;68511;51.146;7.012;2024-02-26T00:39:14;13.80;59.80
79030;DHT22;68511;51.146;7.012;2024-02-26T00:40:15;13.90;59.90
79030;DHT22;68511;51.146;7.012;2024-02-26T00:41:19;13.80;59.90
79030;DHT22;68511;51.146;7.012;2024-02-26T00:42:22;13.80;59.90
79030;DHT22;68511;51.146;7.012;2024-02-26T00:43:23;13.80;59.90
79030;DHT22;68511;51.146;7.012;2024-02-26T00:44:26;13.80;59.90
79030;DHT22;68511;51.146;7.012;2024-02-26T00:45:29;13.80;59.90
79030;DHT22;68511;51.146;7.012;2024-02-26T00:46:32;13.80;59.90
79030;DHT22;68511;51.146;7.012;2024-02-26T00:47:32;13.80;59.90
79030;DHT22;68511;51.146;7.012;2024-02-26T00:48:35;13.80;59.90
79030;DHT22;68511;51.146;7.012;2024-02-26T00:49:38;13.80;59.90
79030;DHT22;68511;51.146;7.012;2024-02-26T00:50:41;13.80;59.90
79030;DHT22;68511;51.146;7.012;2024-02-26T00:51:44;13.80;59.80
79030;DHT22;68511;51.146;7.012;2024-02-26T00:52:47;13.80;59.80
79030;DHT22;68511;51.146;7.012;2024-02-26T00:53:50;13.80;59.90
79030;DHT22;68511;51.146;7.012;2024-02-26T00:54:53;13.80;59.80
79030;DHT22;68511;51.146;7.012;2024-02-26T00:55:56;13.80;59.80
79030;DHT22;68511;51.146;7.012;2024-02-26T00:56:59;13.80;59.80
79030;DHT22;68511;51.146;7.012;2024-02-26T00:57:59;13.80;59.80
79030;DHT22;68511;51.146;7.012;2024-02-26T00:59:03;13.80;59.70
79030;DHT22;68511;51.146;7.012;2024-02-26T01:00:04;13.80;59.80
79030;DHT22;68511;51.146;7.012;2024-02-26T01:01:05;13.80;59.90
79030;DHT22;68511;51.146;7.012;2024-02-26T01:02:05;13.80;59.80
79030;DHT22;68511;51.146;7.012;2024-02-26T01:03:07;13.80;59.80
79030;DHT22;68511;51.146;7.012;2024-02-26T01:04:10;13.80;59.80
79030;DHT22;68511;51.146;7.012;2024-02-26T01:05:10;13.80;59.80
79030;DHT22;68511;51.146;7.012;2024-02-26T01:06:13;13.80;59.70
79030;DHT22;68511;51.146;7.012;2024-02-26T01:07:13;13.80;59.80
79030;DHT22;68511;51.146;7.012;2024-02-26T01:08:17;13.80;59.80
79030;DHT22;68511;51.146;7.012;2024-02-26T01:09:20;13.80;59.80
79030;DHT22;68511;51.146;7.012;2024-02-26T01:10:23;13.80;59.80
79030;DHT22;68511;51.146;7.012;2024-02-26T01:11:23;13.80;59.80
79030;DHT22;68511;51.146;7.012;2024-02-26T01:12:27;13.80;59.80
79030;DHT22;68511;51.146;7.012;2024-02-26T01:13:27;13.80;59.80
79030;DHT22;68511;51.146;7.012;2024-02-26T01:14:28;13.80;59.80
79030;DHT22;68511;51.146;7.012;2024-02-26T01:15:31;13.80;59.90
79030;DHT22;68511;51.146;7.012;2024-02-26T01:16:34;13.80;59.90
79030;DHT22;68511;51.146;7.012;2024-02-26T01:17:37;13.80;59.90
79030;DHT22;68511;51.146;7.012;2024-02-26T01:18:41;13.80;59.80
79030;DHT22;68511;51.146;7.012;2024-02-26T01:19:44;13.80;59.90
79030;DHT22;68511;51.146;7.012;2024-02-26T01:20:47;13.80;59.90
79030;DHT22;68511;51.146;7.012;2024-02-26T01:21:50;13.80;59.90
79030;DHT22;68511;51.146;7.012;2024-02-26T01:22:53;13.80;59.70
79030;DHT22;68511;51.146;7.012;2024-02-26T01:23:55;13.80;59.70
79030;DHT22;68511;51.146;7.012;2024-02-26T01:24:58;13.80;59.80
79030;DHT22;68511;51.146;7.012;2024-02-26T01:25:59;13.80;59.80
79030;DHT22;68511;51.146;7.012;2024-02-26T01:26:59;13.80;59.90
79030;DHT22;68511;51.146;7.012;2024-02-26T01:28:02;13.80;59.80
79030;DHT22;68511;51.146;7.012;2024-02-26T01:29:06;13.80;59.80
79030;DHT22;68511;51.146;7.012;2024-02-26T01:30:06;13.80;59.70
79030;DHT22;68511;51.146;7.012;2024-02-26T01:31:09;13.80;59.80
79030;DHT22;68511;51.146;7.012;2024-02-26T01:32:12;13.80;59.80
79030;DHT22;68511;51.146;7.012;2024-02-26T01:33:13;13.80;59.80
79030;DHT22;68511;51.146;7.012;2024-02-26T01:34:16;13.80;59.80
79030;DHT22;68511;51.146;7.012;2024-02-26T01:35:18;13.80;59.90
79030;DHT22;68511;51.146;7.012;2024-02-26T01:36:22;13.80;59.90
79030;DHT22;68511;51.146;7.012;2024-02-26T01:37:24;13.80;59.90
79030;DHT22;68511;51.146;7.012;2024-02-26T01:38:28;13.80;59.80
79030;DHT22;68511;51.146;7.012;2024-02-26T01:39:31;13.80;59.90
79030;DHT22;68511;51.146;7.012;2024-02-26T01:40:31;13.80;59.80
79030;DHT22;68511;51.146;7.012;2024-02-26T01:41:32;13.80;59.80
79030;DHT22;68511;51.146;7.012;2024-02-26T01:42:32;13.80;59.80
79030;DHT22;68511;51.146;7.012;2024-02-26T01:43:33;13.80;59.90
79030;DHT22;68511;51.146;7.012;2024-02-26T01:44:34;13.80;59.80
79030;DHT22;68511;51.146;7.012;2024-02-26T01:45:36;13.80;59.90
79030;DHT22;68511;51.146;7.012;2024-02-26T01:46:37;13.80;59.80
79030;DHT22;68511;51.146;7.012;2024-02-26T01:47:40;13.80;59.80
79030;DHT22;68511;51.146;7.012;2024-02-26T01:48:43;13.80;59.80
79030;DHT22;68511;51.146;7.012;2024-02-26T01:49:47;13.80;59.90
79030;DHT22;68511;51.146;7.012;2024-02-26T01:50:47;13.80;59.90
79030;DHT22;68511;51.146;7.012;2024-02-26T01:51:50;13.80;59.80
79030;DHT22;68511;51.146;7.012;2024-02-26T01:52:53;13.80;59.90
79030;DHT22;68511;51.146;7.012;2024-02-26T01:53:56;13.80;59.80
79030;DHT22;68511;51.146;7.012;2024-02-26T01:55:00;13.80;59.80
79030;DHT22;68511;51.146;7.012;2024-02-26T01:56:03;13.80;59.80
79030;DHT22;68511;51.146;7.012;2024-02-26T01:57:06;13.80;59.80
79030;DHT22;68511;51.146;7.012;2024-02-26T01:58:10;13.80;59.80
79030;DHT22;68511;51.146;7.012;2024-02-26T01:59:13;13.80;59.90
79030;DHT22;68511;51.146;7.012;2024-02-26T02:00:16;13.80;59.90
79030;DHT22;68511;51.146;7.012;2024-02-26T02:01:17;13.80;60.50
79030;DHT22;68511;51.146;7.012;2024-02-26T02:02:19;13.80;59.90
79030;DHT22;68511;51.146;7.012;2024-02-26T02:03:19;13.80;59.90
79030;DHT22;68511;51.146;7.012;2024-02-26T02:04:23;13.80;59.90
79030;DHT22;68511;51.146;7.012;2024-02-26T02:05:23;13.70;59.80
79030;DHT22;68511;51.146;7.012;2024-02-26T02:06:27;13.80;59.90
79030;DHT22;68511;51.146;7.012;2024-02-26T02:07:28;13.80;59.90
79030;DHT22;68511;51.146;7.012;2024-02-26T02:08:29;13.80;59.90
79030;DHT22;68511;51.146;7.012;2024-02-26T02:09:30;13.80;59.90
79030;DHT22;68511;51.146;7.012;2024-02-26T02:10:33;13.80;59.90
79030;DHT22;68511;51.146;7.012;2024-02-26T02:11:35;13.80;59.90
79030;DHT22;68511;51.146;7.012;2024-02-26T02:12:36;13.80;59.80
79030;DHT22;68511;51.146;7.012;2024-02-26T02:13:40;13.70;59.80
79030;DHT22;68511;51.146;7.012;2024-02-26T02:14:41;13.80;59.90
79030;DHT22;68511;51.146;7.012;2024-02-26T02:15:42;13.70;59.80
79030;DHT22;68511;51.146;7.012;2024-02-26T02:16:42;13.70;59.80
79030;DHT22;68511;51.146;7.012;2024-02-26T02:17:43;13.70;59.80
79030;DHT22;68511;51.146;7.012;2024-02-26T02:18:43;13.80;59.90
79030;DHT22;68511;51.146;7.012;2024-02-26T02:19:44;13.70;59.80
79030;DHT22;68511;51.146;7.012;2024-02-26T02:20:44;13.70;59.70
79030;DHT22;68511;51.146;7.012;2024-02-26T02:21:45;13.70;59.80
79030;DHT22;68511;51.146;7.012;2024-02-26T02:22:48;13.80;59.90
79030;DHT22;68511;51.146;7.012;2024-02-26T02:23:48;13.70;59.80
79030;DHT22;68511;51.146;7.012;2024-02-26T02:24:52;13.70;59.70
79030;DHT22;68511;51.146;7.012;2024-02-26T02:25:55;13.70;59.80
79030;DHT22;68511;51.146;7.012;2024-02-26T02:26:56;13.70;59.70
79030;DHT22;68511;51.146;7.012;2024-02-26T02:27:57;13.70;59.70
79030;DHT22;68511;51.146;7.012;2024-02-26T02:29:02;13.70;59.70
79030;DHT22;68511;51.146;7.012;2024-02-26T02:30:02;13.70;59.80
79030;DHT22;68511;51.146;7.012;2024-02-26T02:31:06;13.70;59.70
79030;DHT22;68511;51.146;7.012;2024-02-26T02:32:09;13.70;59.70
79030;DHT22;68511;51.146;7.012;2024-02-26T02:33:12;13.70;59.70
79030;DHT22;68511;51.146;7.012;2024-02-26T02:34:15;13.70;59.80
79030;DHT22;68511;51.146;7.012;2024-02-26T02:35:15;13.70;59.80
79030;DHT22;68511;51.146;7.012;2024-02-26T02:36:16;13.70;59.80
79030;DHT22;68511;51.146;7.012;2024-02-26T02:37:19;13.70;59.80
79030;DHT22;68511;51.146;7.012;2024-02-26T02:38:19;13.70;59.80
79030;DHT22;68511;51.146;7.012;2024-02-26T02:39:20;13.70;59.80
79030;DHT22;68511;51.146;7.012;2024-02-26T02:40:20;13.70;59.80
79030;DHT22;68511;51.146;7.012;2024-02-26T02:41:21;13.70;59.80
79030;DHT22;68511;51.146;7.012;2024-02-26T02:42:22;13.70;59.80
79030;DHT22;68511;51.146;7.012;2024-02-26T02:43:22;13.70;59.80
79030;DHT22;68511;51.146;7.012;2024-02-26T02:44:23;13.70;60.50
79030;DHT22;68511;51.146;7.012;2024-02-26T02:45:23;13.70;59.80
79030;DHT22;68511;51.146;7.012;2024-02-26T02:46:24;13.70;59.80
79030;DHT22;68511;51.146;7.012;2024-02-26T02:47:24;13.70;59.80
79030;DHT22;68511;51.146;7.012;2024-02-26T02:48:24;13.70;59.80
79030;DHT22;68511;51.146;7.012;2024-02-26T02:49:25;13.70;59.90
79030;DHT22;68511;51.146;7.012;2024-02-26T02:50:25;13.70;59.80
79030;DHT22;68511;51.146;7.012;2024-02-26T02:51:26;13.70;59.80
79030;DHT22;68511;51.146;7.012;2024-02-26T02:52:26;13.70;59.80
79030;DHT22;68511;51.146;7.012;2024-02-26T02:53:27;13.70;59.80
79030;DHT22;68511;51.146;7.012;2024-02-26T02:54:27;13.70;59.80
79030;DHT22;68511;51.146;7.012;2024-02-26T02:55:28;13.70;59.90
79030;DHT22;68511;51.146;7.012;2024-02-26T02:56:28;13.70;59.80
79030;DHT22;68511;51.146;7.012;2024-02-26T02:57:29;13.70;59.90
79030;DHT22;68511;51.146;7.012;2024-02-26T02:58:30;13.70;59.90
79030;DHT22;68511;51.146;7.012;2024-02-26T02:59:31;13.70;59.80
79030;DHT22;68511;51.146;7.012;2024-02-26T03:00:31;13.70;59.80
79030;DHT22;68511;51.146;7.012;2024-02-26T03:01:32;13.70;59.90
79030;DHT22;68511;51.146;7.012;2024-02-26T03:02:32;13.70;59.90
79030;DHT22;68511;51.146;7.012;2024-02-26T03:03:32;13.70;59.90
79030;DHT22;68511;51.146;7.012;2024-02-26T03:04:33;13.70;59.80
79030;DHT22;68511;51.146;7.012;2024-02-26T03:05:33;13.70;59.90
79030;DHT22;68511;51.146;7.012;2024-02-26T03:06:34;13.70;59.90
79030;DHT22;68511;51.146;7.012;2024-02-26T03:07:34;13.70;59.90
79030;DHT22;68511;51.146;7.012;2024-02-26T03:08:35;13.70;59.90
79030;DHT22;68511;51.146;7.012;2024-02-26T03:09:38;13.70;59.90
79030;DHT22;68511;51.146;7.012;2024-02-26T03:10:38;13.70;59.90
79030;DHT22;68511;51.146;7.012;2024-02-26T03:11:39;13.70;59.90
79030;DHT22;68511;51.146;7.012;2024-02-26T03:12:40;13.70;59.90
79030;DHT22;68511;51.146;7.012;2024-02-26T03:13:40;13.70;59.90
79030;DHT22;68511;51.146;7.012;2024-02-26T03:14:41;13.70;59.90
79030;DHT22;68511;51.146;7.012;2024-02-26T03:15:41;13.70;59.90
79030;DHT22;68511;51.146;7.012;2024-02-26T03:16:42;13.70;59.90
79030;DHT22;68511;51.146;7.012;2024-02-26T03:17:42;13.70;59.80
79030;DHT22;68511;51.146;7.012;2024-02-26T03:18:43;13.70;59.90
79030;DHT22;68511;51.146;7.012;2024-02-26T03:19:44;13.70;59.80
79030;DHT22;68511;51.146;7.012;2024-02-26T03:20:47;13.70;59.80
79030;DHT22;68511;51.146;7.012;2024-02-26T03:21:49;13.70;59.90
79030;DHT22;68511;51.146;7.012;2024-02-26T03:22:50;13.70;59.90
79030;DHT22;68511;51.146;7.012;2024-02-26T03:23:50;13.70;60.00
79030;DHT22;68511;51.146;7.012;2024-02-26T03:24:51;13.70;60.00
79030;DHT22;68511;51.146;7.012;2024-02-26T03:25:51;13.70;59.90
79030;DHT22;68511;51.146;7.012;2024-02-26T03:26:52;13.70;59.90
79030;DHT22;68511;51.146;7.012;2024-02-26T03:27:53;13.70;59.80
79030;DHT22;68511;51.146;7.012;2024-02-26T03:28:53;13.70;59.90
79030;DHT22;68511;51.146;7.012;2024-02-26T03:29:55;13.70;59.80
79030;DHT22;68511;51.146;7.012;2024-02-26T03:30:57;13.70;59.80
79030;DHT22;68511;51.146;7.012;2024-02-26T03:32:00;13.70;59.80
79030;DHT22;68511;51.146;7.012;2024-02-26T03:33:01;13.70;59.80
79030;DHT22;68511;51.146;7.012;2024-02-26T03:34:01;13.70;59.90
79030;DHT22;68511;51.146;7.012;2024-02-26T03:35:01;13.70;60.00
79030;DHT22;68511;51.146;7.012;2024-02-26T03:36:02;13.70;60.00
79030;DHT22;68511;51.146;7.012;2024-02-26T03:37:03;13.70;59.90
79030;DHT22;68511;51.146;7.012;2024-02-26T03:38:03;13.70;60.00
79030;DHT22;68511;51.146;7.012;2024-02-26T03:39:04;13.70;59.90
79030;DHT22;68511;51.146;7.012;2024-02-26T03:40:07;13.70;59.90
79030;DHT22;68511;51.146;7.012;2024-02-26T03:41:08;13.70;59.90
79030;DHT22;68511;51.146;7.012;2024-02-26T03:42:08;13.70;59.90
79030;DHT22;68511;51.146;7.012;2024-02-26T03:43:09;13.70;59.90
79030;DHT22;68511;51.146;7.012;2024-02-26T03:44:09;13.70;60.00
79030;DHT22;68511;51.146;7.012;2024-02-26T03:45:10;13.70;60.00
79030;DHT22;68511;51.146;7.012;2024-02-26T03:46:10;13.70;59.90
79030;DHT22;68511;51.146;7.012;2024-02-26T03:47:13;13.70;59.90
79030;DHT22;68511;51.146;7.012;2024-02-26T03:48:14;13.70;59.80
79030;DHT22;68511;51.146;7.012;2024-02-26T03:49:14;13.70;59.90
79030;DHT22;68511;51.146;7.012;2024-02-26T03:50:15;13.70;59.90
79030;DHT22;68511;51.146;7.012;2024-02-26T03:51:16;13.70;60.60
79030;DHT22;68511;51.146;7.012;2024-02-26T03:52:18;13.70;59.90
79030;DHT22;68511;51.146;7.012;2024-02-26T03:53:18;13.70;59.90
79030;DHT22;68511;51.146;7.012;2024-02-26T03:54:19;13.70;59.90
79030;DHT22;68511;51.146;7.012;2024-02-26T03:55:19;13.70;59.90
79030;DHT22;68511;51.146;7.012;2024-02-26T03:56:25;13.70;59.90
79030;DHT22;68511;51.146;7.012;2024-02-26T03:57:26;13.60;59.90
79030;DHT22;68511;51.146;7.012;2024-02-26T03:58:26;13.70;59.90
79030;DHT22;68511;51.146;7.012;2024-02-26T03:59:26;13.70;60.00
79030;DHT22;68511;51.146;7.012;2024-02-26T04:00:27;13.70;60.00
79030;DHT22;68511;51.146;7.012;2024-02-26T04:01:30;13.60;59.90
79030;DHT22;68511;51.146;7.012;2024-02-26T04:02:30;13.70;60.00
79030;DHT22;68511;51.146;7.012;2024-02-26T04:03:31;13.60;59.90
79030;DHT22;68511;51.146;7.012;2024-02-26T04:04:33;13.70;60.00
79030;DHT22;68511;51.146;7.012;2024-02-26T04:05:34;13.70;60.00
79030;DHT22;68511;51.146;7.012;2024-02-26T04:06:34;13.70;60.00
79030;DHT22;68511;51.146;7.012;2024-02-26T04:07:35;13.70;60.00
79030;DHT22;68511;51.146;7.012;2024-02-26T04:08:36;13.70;60.00
79030;DHT22;68511;51.146;7.012;2024-02-26T04:09:36;13.70;60.00
79030;DHT22;68511;51.146;7.012;2024-02-26T04:10:37;13.70;60.00
79030;DHT22;68511;51.146;7.012;2024-02-26T04:11:40;13.70;60.00
79030;DHT22;68511;51.146;7.012;2024-02-26T04:12:41;13.70;60.10
79030;DHT22;68511;51.146;7.012;2024-02-26T04:13:42;13.70;60.00
79030;DHT22;68511;51.146;7.012;2024-02-26T04:14:46;13.70;60.00
79030;DHT22;68511;51.146;7.012;2024-02-26T04:15:46;13.70;60.00
79030;DHT22;68511;51.146;7.012;2024-02-26T04:16:47;13.70;59.90
79030;DHT22;68511;51.146;7.012;2024-02-26T04:17:51;13.70;60.00
79030;DHT22;68511;51.146;7.012;2024-02-26T04:18:52;13.70;60.00
79030;DHT22;68511;51.146;7.012;2024-02-26T04:19:53;13.70;60.00
79030;DHT22;68511;51.146;7.012;2024-02-26T04:20:54;13.70;60.00
79030;DHT22;68511;51.146;7.012;2024-02-26T04:21:54;13.70;60.00
79030;DHT22;68511;51.146;7.012;2024-02-26T04:22:55;13.70;60.00
79030;DHT22;68511;51.146;7.012;2024-02-26T04:23:55;13.70;60.00
79030;DHT22;68511;51.146;7.012;2024-02-26T04:24:56;13.70;60.00
79030;DHT22;68511;51.146;7.012;2024-02-26T04:25:56;13.70;60.00
79030;DHT22;68511;51.146;7.012;2024-02-26T04:26:57;13.70;59.90
79030;DHT22;68511;51.146;7.012;2024-02-26T04:27:57;13.70;59.90
79030;DHT22;68511;51.146;7.012;2024-02-26T04:28:58;13.70;59.90
79030;DHT22;68511;51.146;7.012;2024-02-26T04:29:58;13.70;59.90
79030;DHT22;68511;51.146;7.012;2024-02-26T04:30:59;13.70;59.90
79030;DHT22;68511;51.146;7.012;2024-02-26T04:31:59;13.70;59.90
79030;DHT22;68511;51.146;7.012;2024-02-26T04:32:59;13.70;59.90
79030;DHT22;68511;51.146;7.012;2024-02-26T04:34:00;13.70;59.90
79030;DHT22;68511;51.146;7.012;2024-02-26T04:35:01;13.70;59.90
79030;DHT22;68511;51.146;7.012;2024-02-26T04:36:02;13.70;59.90
79030;DHT22;68511;51.146;7.012;2024-02-26T04:37:03;13.70;59.90
79030;DHT22;68511;51.146;7.012;2024-02-26T04:38:03;13.70;59.90
79030;DHT22;68511;51.146;7.012;2024-02-26T04:39:04;13.70;59.90
79030;DHT22;68511;51.146;7.012;2024-02-26T04:40:04;13.70;60.30
79030;DHT22;68511;51.146;7.012;2024-02-26T04:41:05;13.70;60.00
79030;DHT22;68511;51.146;7.012;2024-02-26T04:42:06;13.70;59.90
79030;DHT22;68511;51.146;7.012;2024-02-26T04:43:06;13.70;60.10
79030;DHT22;68511;51.146;7.012;2024-02-26T04:44:06;13.70;60.00
79030;DHT22;68511;51.146;7.012;2024-02-26T04:45:07;13.70;60.00
79030;DHT22;68511;51.146;7.012;2024-02-26T04:46:09;13.70;59.90
79030;DHT22;68511;51.146;7.012;2024-02-26T04:47:09;13.70;60.00
79030;DHT22;68511;51.146;7.012;2024-02-26T04:48:10;13.70;60.00
79030;DHT22;68511;51.146;7.012;2024-02-26T04:49:10;13.70;60.00
79030;DHT22;68511;51.146;7.012;2024-02-26T04:50:10;13.70;60.00
79030;DHT22;68511;51.146;7.012;2024-02-26T04:51:11;13.70;60.00
79030;DHT22;68511;51.146;7.012;2024-02-26T04:52:11;13.70;60.00
79030;DHT22;68511;51.146;7.012;2024-02-26T04:53:12;13.70;60.10
79030;DHT22;68511;51.146;7.012;2024-02-26T04:54:12;13.70;60.00
79030;DHT22;68511;51.146;7.012;2024-02-26T04:55:13;13.70;60.10
79030;DHT22;68511;51.146;7.012;2024-02-26T04:56:13;13.70;60.80
79030;DHT22;68511;51.146;7.012;2024-02-26T04:57:13;13.70;60.10
79030;DHT22;68511;51.146;7.012;2024-02-26T04:58:14;13.70;60.10
79030;DHT22;68511;51.146;7.012;2024-02-26T04:59:14;13.70;60.10
79030;DHT22;68511;51.146;7.012;2024-02-26T05:00:15;13.60;60.00
79030;DHT22;68511;51.146;7.012;2024-02-26T05:01:15;13.70;60.20
79030;DHT22;68511;51.146;7.012;2024-02-26T05:02:19;13.70;60.10
79030;DHT22;68511;51.146;7.012;2024-02-26T05:03:19;13.70;60.10
79030;DHT22;68511;51.146;7.012;2024-02-26T05:04:19;13.70;60.10
79030;DHT22;68511;51.146;7.012;2024-02-26T05:05:20;13.70;60.10
79030;DHT22;68511;51.146;7.012;2024-02-26T05:06:20;13.70;60.20
79030;DHT22;68511;51.146;7.012;2024-02-26T05:07:21;13.70;60.20
79030;DHT22;68511;51.146;7.012;2024-02-26T05:08:21;13.70;60.20
79030;DHT22;68511;51.146;7.012;2024-02-26T05:09:22;13.70;60.20
79030;DHT22;68511;51.146;7.012;2024-02-26T05:10:22;13.70;60.10
79030;DHT22;68511;51.146;7.012;2024-02-26T05:11:23;13.70;60.20
79030;DHT22;68511;51.146;7.012;2024-02-26T05:12:23;13.70;60.20
79030;DHT22;68511;51.146;7.012;2024-02-26T05:13:24;13.70;60.20
79030;DHT22;68511;51.146;7.012;2024-02-26T05:14:24;13.70;60.20
79030;DHT22;68511;51.146;7.012;2024-02-26T05:15:24;13.70;60.20
79030;DHT22;68511;51.146;7.012;2024-02-26T05:16:25;13.70;60.20
79030;DHT22;68511;51.146;7.012;2024-02-26T05:17:27;13.70;60.20
79030;DHT22;68511;51.146;7.012;2024-02-26T05:18:27;13.70;60.20
79030;DHT22;68511;51.146;7.012;2024-02-26T05:19:28;13.70;60.20
79030;DHT22;68511;51.146;7.012;2024-02-26T05:20:28;13.70;60.20
79030;DHT22;68511;51.146;7.012;2024-02-26T05:21:29;13.70;60.30
79030;DHT22;68511;51.146;7.012;2024-02-26T05:22:29;13.70;60.20
79030;DHT22;68511;51.146;7.012;2024-02-26T05:23:30;13.70;60.30
79030;DHT22;68511;51.146;7.012;2024-02-26T05:24:30;13.70;60.30
79030;DHT22;68511;51.146;7.012;2024-02-26T05:25:31;13.70;60.30
79030;DHT22;68511;51.146;7.012;2024-02-26T05:26:31;13.70;60.20
79030;DHT22;68511;51.146;7.012;2024-02-26T05:27:32;13.70;60.10
79030;DHT22;68511;51.146;7.012;2024-02-26T05:28:32;13.70;60.10
79030;DHT22;68511;51.146;7.012;2024-02-26T05:29:33;13.70;60.10
79030;DHT22;68511;51.146;7.012;2024-02-26T05:30:33;13.70;60.20
79030;DHT22;68511;51.146;7.012;2024-02-26T05:31:34;13.70;60.20
79030;DHT22;68511;51.146;7.012;2024-02-26T05:32:34;13.70;60.20
79030;DHT22;68511;51.146;7.012;2024-02-26T05:33:35;13.70;60.20
79030;DHT22;68511;51.146;7.012;2024-02-26T05:34:35;13.80;60.30
79030;DHT22;68511;51.146;7.012;2024-02-26T05:35:36;13.70;60.20
79030;DHT22;68511;51.146;7.012;2024-02-26T05:36:37;13.70;60.20
79030;DHT22;68511;51.146;7.012;2024-02-26T05:37:37;13.80;60.30
79030;DHT22;68511;51.146;7.012;2024-02-26T05:38:38;13.80;60.30
79030;DHT22;68511;51.146;7.012;2024-02-26T05:39:40;13.80;60.20
79030;DHT22;68511;51.146;7.012;2024-02-26T05:40:41;13.80;60.30
79030;DHT22;68511;51.146;7.012;2024-02-26T05:41:41;13.80;60.30
79030;DHT22;68511;51.146;7.012;2024-02-26T05:42:43;13.80;60.30
79030;DHT22;68511;51.146;7.012;2024-02-26T05:43:45;13.70;60.10
79030;DHT22;68511;51.146;7.012;2024-02-26T05:44:45;13.80;60.20
79030;DHT22;68511;51.146;7.012;2024-02-26T05:45:46;13.80;60.30
79030;DHT22;68511;51.146;7.012;2024-02-26T05:46:46;13.80;60.20
79030;DHT22;68511;51.146;7.012;2024-02-26T05:47:47;13.80;60.20
79030;DHT22;68511;51.146;7.012;2024-02-26T05:48:49;13.80;60.20
79030;DHT22;68511;51.146;7.012;2024-02-26T05:49:49;13.80;60.20
79030;DHT22;68511;51.146;7.012;2024-02-26T05:50:50;13.80;60.20
79030;DHT22;68511;51.146;7.012;2024-02-26T05:51:50;13.80;60.20
79030;DHT22;68511;51.146;7.012;2024-02-26T05:52:51;13.80;60.20
79030;DHT22;68511;51.146;7.012;2024-02-26T05:53:51;13.80;60.30
79030;DHT22;68511;51.146;7.012;2024-02-26T05:54:54;13.80;60.20
79030;DHT22;68511;51.146;7.012;2024-02-26T05:55:54;13.80;60.20
79030;DHT22;68511;51.146;7.012;2024-02-26T05:56:55;13.80;60.20
79030;DHT22;68511;51.146;7.012;2024-02-26T05:57:55;13.80;60.20
79030;DHT22;68511;51.146;7.012;2024-02-26T05:58:56;13.80;60.20
79030;DHT22;68511;51.146;7.012;2024-02-26T05:59:56;13.80;60.20
79030;DHT22;68511;51.146;7.012;2024-02-26T06:00:57;13.80;60.20
79030;DHT22;68511;51.146;7.012;2024-02-26T06:01:57;13.80;60.20
79030;DHT22;68511;51.146;7.012;2024-02-26T06:02:58;13.80;60.20
79030;DHT22;68511;51.146;7.012;2024-02-26T06:03:58;13.80;60.20
79030;DHT22;68511;51.146;7.012;2024-02-26T06:04:58;13.80;60.20
79030;DHT22;68511;51.146;7.012;2024-02-26T06:05:59;13.80;60.20
79030;DHT22;68511;51.146;7.012;2024-02-26T06:07:00;13.80;60.20
79030;DHT22;68511;51.146;7.012;2024-02-26T06:08:00;13.80;60.20
79030;DHT22;68511;51.146;7.012;2024-02-26T06:09:01;13.80;60.20
79030;DHT22;68511;51.146;7.012;2024-02-26T06:10:02;13.80;60.20
79030;DHT22;68511;51.146;7.012;2024-02-26T06:11:06;13.80;60.20
79030;DHT22;68511;51.146;7.012;2024-02-26T06:12:07;13.80;60.20
79030;DHT22;68511;51.146;7.012;2024-02-26T06:13:07;13.80;60.20
79030;DHT22;68511;51.146;7.012;2024-02-26T06:14:08;13.80;60.10
79030;DHT22;68511;51.146;7.012;2024-02-26T06:15:10;13.80;60.90
79030;DHT22;68511;51.146;7.012;2024-02-26T06:16:10;13.80;60.20
79030;DHT22;68511;51.146;7.012;2024-02-26T06:17:11;13.80;60.90
79030;DHT22;68511;51.146;7.012;2024-02-26T06:18:11;13.80;60.10
79030;DHT22;68511;51.146;7.012;2024-02-26T06:19:12;13.80;60.10
79030;DHT22;68511;51.146;7.012;2024-02-26T06:20:12;13.80;60.10
79030;DHT22;68511;51.146;7.012;2024-02-26T06:21:13;13.80;60.10
79030;DHT22;68511;51.146;7.012;2024-02-26T06:22:13;13.80;60.10
79030;DHT22;68511;51.146;7.012;2024-02-26T06:23:14;13.80;60.10
79030;DHT22;68511;51.146;7.012;2024-02-26T06:24:14;13.80;60.10
79030;DHT22;68511;51.146;7.012;2024-02-26T06:25:15;13.80;60.10
79030;DHT22;68511;51.146;7.012;2024-02-26T06:26:15;13.80;60.10
79030;DHT22;68511;51.146;7.012;2024-02-26T06:27:16;13.80;60.10